Time;durP1;ratioP1;P1;durP2;ratioP2;P2;SDS_P1;SDS_P2;PMS_P1;PMS_P2;Temp;Humidity;BMP_temperature;BMP_pressure;BME280_temperature;BME280_humidity;BME280_pressure;Samples;Min_cycle;Max_cycle;Signal;HPM_P1;HPM_P2
2023/06/20 00:01:34;;;;;;;;;;;;;;;;;;5015325;28;19957;-64
2023/06/20 00:04:00;;;;;;;;;;;;;;;;;;5031826;28;19925;-64
2023/06/20 00:06:26;;;;;;;;;;;;;;;;;;5029134;28;19931;-64
2023/06/20 00:08:51;;;;;;;;;;;;;;;;;;5030820;28;19921;-64
2023/06/20 00:11:17;;;;;;;;;;;;;;;;;;5032549;28;19964;-64
2023/06/20 00:13:43;;;;;;;;;;;;;;;;;;5032095;28;19921;-64
2023/06/20 00:16:09;;;;;;;;;;;;;;;;;;5032787;28;19947;-64
2023/06/20 00:18:35;;;;;;;;;;;;;;;;;;5021642;28;20394;-64
2023/06/20 00:21:01;;;;;;;;;;;;;;;;;;5032976;28;19925;-64
2023/06/20 00:23:29;;;;;;;;;;;;;;;;;;5030654;28;20003;-64
2023/06/20 00:25:55;;;;;;;;;;;;;;;;;;5017937;28;19928;-64
2023/06/20 00:28:21;;;;;;;;;;;;;;;;;;5016147;28;19925;-64
2023/06/20 00:30:47;;;;;;;;;;;;;;;;;;5029290;28;19929;-64
2023/06/20 00:33:13;;;;;;;;;;;;;;;;;;5032822;28;20337;-64
2023/06/20 00:35:39;;;;;;;;;;;;;;;;;;5027515;28;19968;-64
2023/06/20 00:38:06;;;;;;;;;;;;;;;;;;5030155;28;20336;-64
2023/06/20 00:40:32;;;;;;;;;;;;;;;;;;5015791;28;19944;-64
2023/06/20 00:42:58;;;;;;;;;;;;;;;;;;5014994;28;19932;-64
2023/06/20 00:45:24;;;;;;;;;;;;;;;;;;5030175;28;19928;-64
2023/06/20 00:47:50;;;;;;;;;;;;;;;;;;5031606;28;19921;-64
2023/06/20 00:50:16;;;;;;;;;;;;;;;;;;5021735;28;19921;-64
2023/06/20 00:52:42;;;;;;;;;;;;;;;;;;5032626;28;19925;-64
2023/06/20 00:55:08;;;;;;;;;;;;;;;;;;5031143;28;19920;-64
2023/06/20 00:57:34;;;;;;;;;;;;;;;;;;5032187;28;19932;-64
2023/06/20 01:00:00;;;;;;;;;;;;;;;;;;5026556;28;19921;-64
2023/06/20 01:02:25;;;;;;;;;;;;;;;;;;5032979;28;19921;-64
2023/06/20 01:04:51;;;;;;;;;;;;;;;;;;5032005;28;21380;-64
2023/06/20 01:07:17;;;;;;;;;;;;;;;;;;5033147;28;19929;-64
2023/06/20 01:09:44;;;;;;;;;;;;;;;;;;5028194;28;20338;-64
2023/06/20 01:12:10;;;;;;;;;;;;;;;;;;5033105;28;19967;-64
2023/06/20 01:14:36;;;;;;;;;;;;;;;;;;5031682;28;19921;-64
2023/06/20 01:17:02;;;;;;;;;;;;;;;;;;4996827;28;20446;-64
2023/06/20 01:19:28;;;;;;;;;;;;;;;;;;5032461;28;19960;-64
2023/06/20 01:21:54;;;;;;;;;;;;;;;;;;5032324;28;20308;-64
2023/06/20 01:24:20;;;;;;;;;;;;;;;;;;5029856;28;19999;-64
2023/06/20 01:26:46;;;;;;;;;;;;;;;;;;5031440;28;19921;-64
2023/06/20 01:29:12;;;;;;;;;;;;;;;;;;5029358;28;19929;-64
2023/06/20 01:31:37;;;;;;;;;;;;;;;;;;5029612;28;19928;-64
2023/06/20 01:34:03;;;;;;;;;;;;;;;;;;5031358;28;19971;-63
2023/06/20 01:36:29;;;;;;;;;;;;;;;;;;5030008;28;20453;-63
2023/06/20 01:38:55;;;;;;;;;;;;;;;;;;5017688;28;20337;-63
2023/06/20 01:41:21;;;;;;;;;;;;;;;;;;5018804;28;20011;-64
2023/06/20 01:43:47;;;;;;;;;;;;;;;;;;5027665;28;19953;-64
2023/06/20 01:46:13;;;;;;;;;;;;;;;;;;5028048;28;20001;-64
2023/06/20 01:48:39;;;;;;;;;;;;;;;;;;5024784;28;19964;-64
2023/06/20 01:51:05;;;;;;;;;;;;;;;;;;5031406;28;20023;-64
2023/06/20 01:53:30;;;;;;;;;;;;;;;;;;5033678;28;20286;-64
2023/06/20 01:55:56;;;;;;;;;;;;;;;;;;5011558;28;19921;-64
2023/06/20 01:58:22;;;;;;;;;;;;;;;;;;5011236;28;19982;-64
2023/06/20 02:00:48;;;;;;;;;;;;;;;;;;5029491;28;19928;-64
2023/06/20 02:03:14;;;;;;;;;;;;;;;;;;5031165;28;19925;-64
2023/06/20 02:05:40;;;;;;;;;;;;;;;;;;5031771;28;19927;-64
2023/06/20 02:08:06;;;;;;;;;;;;;;;;;;5031679;28;19924;-64
2023/06/20 02:10:32;;;;;;;;;;;;;;;;;;4994936;28;20470;-64
2023/06/20 02:12:58;;;;;;;;;;;;;;;;;;5029900;28;19921;-64
2023/06/20 02:15:24;;;;;;;;;;;;;;;;;;5029427;28;19931;-64
2023/06/20 02:17:50;;;;;;;;;;;;;;;;;;5028458;28;19929;-64
2023/06/20 02:20:16;;;;;;;;;;;;;;;;;;5011858;28;20020;-64
2023/06/20 02:22:42;;;;;;;;;;;;;;;;;;5030512;28;19932;-64
2023/06/20 02:25:09;;;;;;;;;;;;;;;;;;5031227;28;19994;-64
2023/06/20 02:27:35;;;;;;;;;;;;;;;;;;5031205;28;19925;-64
2023/06/20 02:30:00;;;;;;;;;;;;;;;;;;5028717;28;20004;-64
2023/06/20 02:32:26;;;;;;;;;;;;;;;;;;5028688;28;19936;-64
2023/06/20 02:34:52;;;;;;;;;;;;;;;;;;5012140;28;20902;-64
2023/06/20 02:37:18;;;;;;;;;;;;;;;;;;5028936;28;19925;-64
2023/06/20 02:39:44;;;;;;;;;;;;;;;;;;5025011;28;20016;-64
2023/06/20 02:42:10;;;;;;;;;;;;;;;;;;5026783;28;19936;-64
2023/06/20 02:44:36;;;;;;;;;;;;;;;;;;5030565;28;19928;-64
2023/06/20 02:47:02;;;;;;;;;;;;;;;;;;5007704;28;19930;-64
2023/06/20 02:49:28;;;;;;;;;;;;;;;;;;5028901;28;19921;-64
2023/06/20 02:51:54;;;;;;;;;;;;;;;;;;5031615;28;19994;-64
2023/06/20 02:54:20;;;;;;;;;;;;;;;;;;5028197;28;19928;-64
2023/06/20 02:56:46;;;;;;;;;;;;;;;;;;5029427;28;19975;-64
2023/06/20 02:59:12;;;;;;;;;;;;;;;;;;5030740;28;19929;-64
2023/06/20 03:01:38;;;;;;;;;;;;;;;;;;5029011;28;19948;-64
2023/06/20 03:04:03;;;;;;;;;;;;;;;;;;5029936;28;19928;-62
2023/06/20 03:06:29;;;;;;;;;;;;;;;;;;5028339;28;20326;-64
2023/06/20 03:08:55;;;;;;;;;;;;;;;;;;5030545;28;19982;-64
2023/06/20 03:11:21;;;;;;;;;;;;;;;;;;5030400;28;19925;-62
2023/06/20 03:13:47;;;;;;;;;;;;;;;;;;5009353;28;19928;-62
2023/06/20 03:16:13;;;;;;;;;;;;;;;;;;5027827;28;19956;-64
2023/06/20 03:18:39;;;;;;;;;;;;;;;;;;5027692;28;20517;-64
2023/06/20 03:21:05;;;;;;;;;;;;;;;;;;5027832;28;19957;-64
2023/06/20 03:23:31;;;;;;;;;;;;;;;;;;5027800;28;20011;-64
2023/06/20 03:25:56;;;;;;;;;;;;;;;;;;5028191;28;20501;-63
2023/06/20 03:28:23;;;;;;;;;;;;;;;;;;5027411;28;19983;-63
2023/06/20 03:30:49;;;;;;;;;;;;;;;;;;5011104;28;19986;-64
2023/06/20 03:33:15;;;;;;;;;;;;;;;;;;5028649;28;19929;-63
2023/06/20 03:35:41;;;;;;;;;;;;;;;;;;5028316;28;19929;-63
2023/06/20 03:38:06;;;;;;;;;;;;;;;;;;5009699;28;19936;-63
2023/06/20 03:40:32;;;;;;;;;;;;;;;;;;5021872;28;20004;-63
2023/06/20 03:42:58;;;;;;;;;;;;;;;;;;5027447;28;19928;-63
2023/06/20 03:45:24;;;;;;;;;;;;;;;;;;5026972;28;20306;-63
2023/06/20 03:47:51;;;;;;;;;;;;;;;;;;5029222;28;19932;-63
2023/06/20 03:50:17;;;;;;;;;;;;;;;;;;5026626;28;19952;-63
2023/06/20 03:52:42;;;;;;;;;;;;;;;;;;5028342;28;20010;-63
2023/06/20 03:55:08;;;;;;;;;;;;;;;;;;5028966;28;20594;-63
2023/06/20 03:57:34;;;;;;;;;;;;;;;;;;5025804;28;19939;-63
2023/06/20 04:00:00;;;;;;;;;;;;;;;;;;5026678;28;19959;-63
2023/06/20 04:02:26;;;;;;;;;;;;;;;;;;5015473;28;19925;-63
2023/06/20 04:04:52;;;;;;;;;;;;;;;;;;5002363;28;19926;-63
2023/06/20 04:07:18;;;;;;;;;;;;;;;;;;5011204;28;19925;-64
2023/06/20 04:09:44;;;;;;;;;;;;;;;;;;5030693;28;19928;-64
2023/06/20 04:12:10;;;;;;;;;;;;;;;;;;5031148;28;20012;-64
2023/06/20 04:14:36;;;;;;;;;;;;;;;;;;5030044;28;20260;-64
2023/06/20 04:17:02;;;;;;;;;;;;;;;;;;5014516;28;20375;-64
2023/06/20 04:19:28;;;;;;;;;;;;;;;;;;5023815;28;19932;-64
2023/06/20 04:21:54;;;;;;;;;;;;;;;;;;5031381;28;19925;-64
2023/06/20 04:24:19;;;;;;;;;;;;;;;;;;5035824;28;20378;-64
2023/06/20 04:26:45;;;;;;;;;;;;;;;;;;5031196;28;19929;-64
2023/06/20 04:29:11;;;;;;;;;;;;;;;;;;5031529;28;19971;-64
2023/06/20 04:31:37;;;;;;;;;;;;;;;;;;5032451;28;19921;-64
2023/06/20 04:34:03;;;;;;;;;;;;;;;;;;4996365;28;19967;-64
2023/06/20 04:36:30;;;;;;;;;;;;;;;;;;5046944;22;19925;-67
2023/06/20 04:38:55;;;;;;;;;;;;;;;;;;5039296;28;19932;-67
2023/06/20 04:41:21;;;;;;;;;;;;;;;;;;5045460;28;19924;-67
2023/06/20 04:43:49;;;;;;;;;;;;;;;;;;5050725;28;19925;-67
2023/06/20 04:46:15;;;;;;;;;;;;;;;;;;5016366;28;19921;-67
2023/06/20 04:48:41;;;;;;;;;;;;;;;;;;5051428;28;19928;-67
2023/06/20 04:51:08;;;;;;;;;;;;;;;;;;5051926;28;19998;-67
2023/06/20 04:53:34;;;;;;;;;;;;;;;;;;5046297;28;19920;-67
2023/06/20 04:55:59;;;;;;;;;;;;;;;;;;5051596;28;19975;-69
2023/06/20 04:58:28;;;;;;;;;;;;;;;;;;5047848;28;19928;-67
2023/06/20 05:00:54;;;;;;;;;;;;;;;;;;5049692;28;20401;-65
2023/06/20 05:03:19;;;;;;;;;;;;;;;;;;5052904;28;19925;-64
2023/06/20 05:05:45;;;;;;;;;;;;;;;;;;5049562;28;19936;-65
2023/06/20 05:08:11;;;;;;;;;;;;;;;;;;5052625;28;20015;-65
2023/06/20 05:10:37;;;;;;;;;;;;;;;;;;5025929;28;19928;-65
2023/06/20 05:13:03;;;;;;;;;;;;;;;;;;5044535;28;19966;-65
2023/06/20 05:15:29;;;;;;;;;;;;;;;;;;5042323;28;19960;-64
2023/06/20 05:17:55;;;;;;;;;;;;;;;;;;5050953;28;19931;-65
2023/06/20 05:20:21;;;;;;;;;;;;;;;;;;5049193;28;19920;-64
2023/06/20 05:22:47;;;;;;;;;;;;;;;;;;5051567;28;19924;-65
2023/06/20 05:25:13;;;;;;;;;;;;;;;;;;5049428;28;19931;-65
2023/06/20 05:27:38;;;;;;;;;;;;;;;;;;5044583;28;19925;-65
2023/06/20 05:30:04;;;;;;;;;;;;;;;;;;5046218;28;19951;-65
2023/06/20 05:32:30;;;;;;;;;;;;;;;;;;5046292;28;19974;-65
2023/06/20 05:34:56;;;;;;;;;;;;;;;;;;5042748;28;19939;-65
2023/06/20 05:37:22;;;;;;;;;;;;;;;;;;5048900;28;19928;-66
2023/06/20 05:39:48;;;;;;;;;;;;;;;;;;5046543;28;19972;-64
2023/06/20 05:42:14;;;;;;;;;;;;;;;;;;5047210;28;20003;-65
2023/06/20 05:44:40;;;;;;;;;;;;;;;;;;5046739;28;21684;-64
2023/06/20 05:47:06;;;;;;;;;;;;;;;;;;5043264;28;19925;-65
2023/06/20 05:49:31;;;;;;;;;;;;;;;;;;5032056;28;19947;-64
2023/06/20 05:51:57;;;;;;;;;;;;;;;;;;5045145;28;20568;-65
2023/06/20 05:54:23;;;;;;;;;;;;;;;;;;5048427;28;19925;-65
2023/06/20 05:56:49;;;;;;;;;;;;;;;;;;5045637;28;19935;-66
2023/06/20 05:59:15;;;;;;;;;;;;;;;;;;5050437;28;20274;-65
2023/06/20 06:01:41;;;;;;;;;;;;;;;;;;5021511;28;19986;-65
2023/06/20 06:04:07;;;;;;;;;;;;;;;;;;5051491;28;19924;-65
2023/06/20 06:06:33;;;;;;;;;;;;;;;;;;5034746;28;19929;-66
2023/06/20 06:08:59;;;;;;;;;;;;;;;;;;5050747;28;19924;-66
2023/06/20 06:11:28;;;;;;;;;;;;;;;;;;5050741;28;20409;-66
2023/06/20 06:13:54;;;;;;;;;;;;;;;;;;5049412;28;20079;-63
2023/06/20 06:16:20;;;;;;;;;;;;;;;;;;5047128;28;20008;-65
2023/06/20 06:18:46;;;;;;;;;;;;;;;;;;5047058;28;20350;-64
2023/06/20 06:21:11;;;;;;;;;;;;;;;;;;5047874;28;19925;-64
2023/06/20 06:23:37;;;;;;;;;;;;;;;;;;5025510;28;20309;-65
2023/06/20 06:26:04;;;;;;;;;;;;;;;;;;5049460;28;20007;-65
2023/06/20 06:28:30;;;;;;;;;;;;;;;;;;5046947;28;19921;-65
2023/06/20 06:30:58;;;;;;;;;;;;;;;;;;5049267;28;20326;-65
2023/06/20 06:33:24;;;;;;;;;;;;;;;;;;5031917;28;19936;-66
2023/06/20 06:35:50;;;;;;;;;;;;;;;;;;5048370;28;19921;-65
2023/06/20 06:38:16;;;;;;;;;;;;;;;;;;5045940;28;20248;-65
2023/06/20 06:40:43;;;;;;;;;;;;;;;;;;5046145;28;19936;-65
2023/06/20 06:43:09;;;;;;;;;;;;;;;;;;5048320;28;19927;-64
2023/06/20 06:45:35;;;;;;;;;;;;;;;;;;5047256;28;19943;-65
2023/06/20 06:48:01;;;;;;;;;;;;;;;;;;5047449;28;19932;-65
2023/06/20 06:50:27;;;;;;;;;;;;;;;;;;5050370;28;19925;-65
2023/06/20 06:52:53;;;;;;;;;;;;;;;;;;5029424;28;19928;-65
2023/06/20 06:55:18;;;;;;;;;;;;;;;;;;5025841;28;20008;-65
2023/06/20 06:57:44;;;;;;;;;;;;;;;;;;5018340;28;19940;-65
2023/06/20 07:00:14;;;;;;;;;;;;;;;;;;5026910;28;19925;-65
2023/06/20 07:02:40;;;;;;;;;;;;;;;;;;5042802;28;19921;-65
2023/06/20 07:05:06;;;;;;;;;;;;;;;;;;5046643;28;20455;-65
2023/06/20 07:07:32;;;;;;;;;;;;;;;;;;5027138;28;19925;-65
2023/06/20 07:09:57;;;;;;;;;;;;;;;;;;5049234;28;19921;-64
2023/06/20 07:12:23;;;;;;;;;;;;;;;;;;5046890;28;19922;-64
2023/06/20 07:14:52;;;;;;;;;;;;;;;;;;5049779;28;19974;-60
2023/06/20 07:17:17;;;;;;;;;;;;;;;;;;5048295;28;20047;-60
2023/06/20 07:19:43;;;;;;;;;;;;;;;;;;5031969;28;20055;-60
2023/06/20 07:22:09;;;;;;;;;;;;;;;;;;5050171;28;19967;-61
2023/06/20 07:24:37;;;;;;;;;;;;;;;;;;5031815;28;20399;-60
2023/06/20 07:27:03;;;;;;;;;;;;;;;;;;5031529;28;20011;-60
2023/06/20 07:29:29;;;;;;;;;;;;;;;;;;5030602;28;20478;-60
2023/06/20 07:31:55;;;;;;;;;;;;;;;;;;5049166;28;19921;-60
2023/06/20 07:34:21;;;;;;;;;;;;;;;;;;5048887;28;19925;-61
2023/06/20 07:36:46;;;;;;;;;;;;;;;;;;5046673;28;20374;-61
2023/06/20 07:39:13;;;;;;;;;;;;;;;;;;5040602;28;19964;-61
2023/06/20 07:41:38;;;;;;;;;;;;;;;;;;5040016;28;19925;-59
2023/06/20 07:44:04;;;;;;;;;;;;;;;;;;5052921;28;20255;-60
2023/06/20 07:46:30;;;;;;;;;;;;;;;;;;5045688;28;19967;-59
2023/06/20 07:48:56;;;;;;;;;;;;;;;;;;5044947;28;19921;-60
2023/06/20 07:51:22;;;;;;;;;;;;;;;;;;5053976;28;19924;-60
2023/06/20 07:53:48;;;;;;;;;;;;;;;;;;5027691;28;19971;-60
2023/06/20 07:56:14;;;;;;;;;;;;;;;;;;5033468;28;19998;-60
2023/06/20 07:58:41;;;;;;;;;;;;;;;;;;5037624;28;19924;-60
2023/06/20 08:01:07;;;;;;;;;;;;;;;;;;5048511;28;20329;-60
2023/06/20 08:03:33;;;;;;;;;;;;;;;;;;5050387;28;20337;-60
2023/06/20 08:05:59;;;;;;;;;;;;;;;;;;5019719;28;19925;-64
2023/06/20 08:08:25;;;;;;;;;;;;;;;;;;5031660;28;20427;-64
2023/06/20 08:10:51;;;;;;;;;;;;;;;;;;5052828;28;19960;-64
2023/06/20 08:13:17;;;;;;;;;;;;;;;;;;5043547;28;20277;-64
2023/06/20 08:15:43;;;;;;;;;;;;;;;;;;5041751;28;19931;-64
2023/06/20 08:18:08;;;;;;;;;;;;;;;;;;5044797;28;19929;-64
2023/06/20 08:20:35;;;;;;;;;;;;;;;;;;5049409;28;20004;-64
2023/06/20 08:23:00;;;;;;;;;;;;;;;;;;5051536;28;19928;-65
2023/06/20 08:25:26;;;;;;;;;;;;;;;;;;5051970;28;19925;-65
2023/06/20 08:27:52;;;;;;;;;;;;;;;;;;5047350;28;19931;-65
2023/06/20 08:30:18;;;;;;;;;;;;;;;;;;5049114;28;19928;-65
2023/06/20 08:32:45;;;;;;;;;;;;;;;;;;5050073;28;19924;-65
2023/06/20 08:35:10;;;;;;;;;;;;;;;;;;5046787;28;19924;-65
2023/06/20 08:37:37;;;;;;;;;;;;;;;;;;5028673;28;19925;-64
2023/06/20 08:40:03;;;;;;;;;;;;;;;;;;5046465;28;19925;-65
2023/06/20 08:42:30;;;;;;;;;;;;;;;;;;5043417;28;19931;-64
2023/06/20 08:44:56;;;;;;;;;;;;;;;;;;5041776;28;19924;-65
2023/06/20 08:47:22;;;;;;;;;;;;;;;;;;5049261;28;20378;-65
2023/06/20 08:49:48;;;;;;;;;;;;;;;;;;5034526;28;19928;-65
2023/06/20 08:52:14;;;;;;;;;;;;;;;;;;5051282;28;19924;-63
2023/06/20 08:54:41;;;;;;;;;;;;;;;;;;5045641;28;20564;-63
2023/06/20 08:57:07;;;;;;;;;;;;;;;;;;5046176;28;20313;-63
2023/06/20 08:59:33;;;;;;;;;;;;;;;;;;5046936;28;19928;-61
2023/06/20 09:01:59;;;;;;;;;;;;;;;;;;5030338;28;19929;-62
2023/06/20 09:04:25;;;;;;;;;;;;;;;;;;5045634;28;19952;-62
2023/06/20 09:06:50;;;;;;;;;;;;;;;;;;5046042;28;19924;-62
2023/06/20 09:09:16;;;;;;;;;;;;;;;;;;5047735;28;19921;-62
2023/06/20 09:11:42;;;;;;;;;;;;;;;;;;5040971;28;19979;-62
2023/06/20 09:14:08;;;;;;;;;;;;;;;;;;5047098;28;20335;-62
2023/06/20 09:16:34;;;;;;;;;;;;;;;;;;5046505;28;19928;-67
2023/06/20 09:19:00;;;;;;;;;;;;;;;;;;5051194;28;19960;-67
2023/06/20 09:21:26;;;;;;;;;;;;;;;;;;5047352;28;20688;-67
2023/06/20 09:23:52;;;;;;;;;;;;;;;;;;5042963;28;19935;-67
2023/06/20 09:26:17;;;;;;;;;;;;;;;;;;5046364;28;20351;-67
2023/06/20 09:28:43;;;;;;;;;;;;;;;;;;5048683;28;19921;-67
2023/06/20 09:31:09;;;;;;;;;;;;;;;;;;5050367;28;19967;-67
2023/06/20 09:33:36;;;;;;;;;;;;;;;;;;5045942;28;20293;-67
2023/06/20 09:36:02;;;;;;;;;;;;;;;;;;5038355;28;19928;-67
2023/06/20 09:38:28;;;;;;;;;;;;;;;;;;5047171;28;19928;-67
2023/06/20 09:40:54;;;;;;;;;;;;;;;;;;5044035;28;19951;-67
2023/06/20 09:43:20;;;;;;;;;;;;;;;;;;5031065;28;19993;-67
2023/06/20 09:45:46;;;;;;;;;;;;;;;;;;5045287;28;19930;-64
2023/06/20 09:48:12;;;;;;;;;;;;;;;;;;5049942;28;19970;-64
2023/06/20 09:50:38;;;;;;;;;;;;;;;;;;5043829;28;19925;-64
2023/06/20 09:53:03;;;;;;;;;;;;;;;;;;5034603;28;19921;-64
2023/06/20 09:55:30;;;;;;;;;;;;;;;;;;5051870;28;20432;-65
2023/06/20 09:57:56;;;;;;;;;;;;;;;;;;5042266;28;20068;-65
2023/06/20 10:00:24;;;;;;;;;;;;;;;;;;5060927;28;20318;-65
2023/06/20 10:02:49;;;;;;;;;;;;;;;;;;5048147;28;19968;-65
2023/06/20 10:05:15;;;;;;;;;;;;;;;;;;5047132;28;19971;-64
2023/06/20 10:07:41;;;;;;;;;;;;;;;;;;5043041;28;19947;-64
2023/06/20 10:10:07;;;;;;;;;;;;;;;;;;5041885;28;19974;-65
2023/06/20 10:12:33;;;;;;;;;;;;;;;;;;5051351;28;19924;-64
2023/06/20 10:14:59;;;;;;;;;;;;;;;;;;5044505;28;20005;-64
2023/06/20 10:17:25;;;;;;;;;;;;;;;;;;5029021;28;20389;-65
2023/06/20 10:19:51;;;;;;;;;;;;;;;;;;5043287;28;19931;-65
2023/06/20 10:22:17;;;;;;;;;;;;;;;;;;5046496;28;19934;-64
2023/06/20 10:24:43;;;;;;;;;;;;;;;;;;5042947;28;20453;-65
2023/06/20 10:27:09;;;;;;;;;;;;;;;;;;5023644;28;19921;-64
2023/06/20 10:29:34;;;;;;;;;;;;;;;;;;5047072;28;19932;-64
2023/06/20 10:32:00;;;;;;;;;;;;;;;;;;5046647;28;20397;-64
2023/06/20 10:34:26;;;;;;;;;;;;;;;;;;5014163;28;19971;-65
2023/06/20 10:36:52;;;;;;;;;;;;;;;;;;5040889;28;19967;-68
2023/06/20 10:39:18;;;;;;;;;;;;;;;;;;5043924;28;19929;-67
2023/06/20 10:41:44;;;;;;;;;;;;;;;;;;5052065;28;19928;-67
2023/06/20 10:44:11;;;;;;;;;;;;;;;;;;5046947;28;19978;-67
2023/06/20 10:46:37;;;;;;;;;;;;;;;;;;5042317;28;20595;-68
2023/06/20 10:49:03;;;;;;;;;;;;;;;;;;5027562;28;19964;-68
2023/06/20 10:51:29;;;;;;;;;;;;;;;;;;5041414;28;20002;-68
2023/06/20 10:53:55;;;;;;;;;;;;;;;;;;5038909;28;19921;-67
2023/06/20 10:56:21;;;;;;;;;;;;;;;;;;5040775;28;19932;-68
2023/06/20 10:58:46;;;;;;;;;;;;;;;;;;5042476;28;19943;-67
2023/06/20 11:01:12;;;;;;;;;;;;;;;;;;5042961;28;20350;-67
2023/06/20 11:03:38;;;;;;;;;;;;;;;;;;5044395;28;20020;-67
2023/06/20 11:06:04;;;;;;;;;;;;;;;;;;5045181;28;19946;-67
2023/06/20 11:08:30;;;;;;;;;;;;;;;;;;5047348;28;19921;-67
2023/06/20 11:10:57;;;;;;;;;;;;;;;;;;5042185;28;19928;-67
2023/06/20 11:13:23;;;;;;;;;;;;;;;;;;5050192;28;19929;-67
2023/06/20 11:15:49;;;;;;;;;;;;;;;;;;5029175;28;20031;-67
2023/06/20 11:18:15;;;;;;;;;;;;;;;;;;5018125;28;20445;-67
2023/06/20 11:20:41;;;;;;;;;;;;;;;;;;5054077;28;20404;-67
2023/06/20 11:23:07;;;;;;;;;;;;;;;;;;5048466;28;19925;-67
2023/06/20 11:25:33;;;;;;;;;;;;;;;;;;5055952;28;19975;-67
2023/06/20 11:27:59;;;;;;;;;;;;;;;;;;5052894;28;19992;-68
2023/06/20 11:30:25;;;;;;;;;;;;;;;;;;5049990;28;19929;-67
2023/06/20 11:32:50;;;;;;;;;;;;;;;;;;5049230;28;19929;-67
2023/06/20 11:35:17;;;;;;;;;;;;;;;;;;5058681;28;20011;-67
2023/06/20 11:37:43;;;;;;;;;;;;;;;;;;5062196;28;19932;-67
2023/06/20 11:40:09;;;;;;;;;;;;;;;;;;5053253;28;19932;-67
2023/06/20 11:42:35;;;;;;;;;;;;;;;;;;5049854;28;20412;-67
2023/06/20 11:45:01;;;;;;;;;;;;;;;;;;5048742;28;19951;-67
2023/06/20 11:47:27;;;;;;;;;;;;;;;;;;5024549;28;19929;-67
2023/06/20 11:49:56;;;;;;;;;;;;;;;;;;5021028;28;19925;-67
2023/06/20 11:52:24;;;;;;;;;;;;;;;;;;5048712;28;20386;-67
2023/06/20 11:54:51;;;;;;;;;;;;;;;;;;5042170;28;19921;-67
2023/06/20 11:57:17;;;;;;;;;;;;;;;;;;5047213;28;20429;-67
2023/06/20 11:59:43;;;;;;;;;;;;;;;;;;5033674;28;19999;-67
2023/06/20 12:02:09;;;;;;;;;;;;;;;;;;5048548;28;20261;-67
2023/06/20 12:04:42;;;;;;;;;;;;;;;;;;5050986;28;19929;-67
2023/06/20 12:07:08;;;;;;;;;;;;;;;;;;5031787;28;20343;-67
2023/06/20 12:09:34;;;;;;;;;;;;;;;;;;5035250;28;19928;-67
2023/06/20 12:12:00;;;;;;;;;;;;;;;;;;5051507;28;19935;-67
2023/06/20 12:14:26;;;;;;;;;;;;;;;;;;5053065;28;20398;-67
2023/06/20 12:16:52;;;;;;;;;;;;;;;;;;5049875;28;19979;-67
2023/06/20 12:19:19;;;;;;;;;;;;;;;;;;5048013;28;19975;-67
2023/06/20 12:21:45;;;;;;;;;;;;;;;;;;5050156;28;20267;-67
2023/06/20 12:24:11;;;;;;;;;;;;;;;;;;5053481;28;19951;-67
2023/06/20 12:26:37;;;;;;;;;;;;;;;;;;5050995;28;20420;-67
2023/06/20 12:29:03;;;;;;;;;;;;;;;;;;5020118;28;19964;-67
2023/06/20 12:31:29;;;;;;;;;;;;;;;;;;5049046;28;19944;-67
2023/06/20 12:33:55;;;;;;;;;;;;;;;;;;5047006;28;19936;-67
2023/06/20 12:36:20;;;;;;;;;;;;;;;;;;5026975;28;19928;-67
2023/06/20 12:38:46;;;;;;;;;;;;;;;;;;5053981;28;20028;-67
2023/06/20 12:41:12;;;;;;;;;;;;;;;;;;5053763;28;19960;-67
2023/06/20 12:43:38;;;;;;;;;;;;;;;;;;5052013;28;19921;-67
2023/06/20 12:46:04;;;;;;;;;;;;;;;;;;5048799;28;19932;-67
2023/06/20 12:48:30;;;;;;;;;;;;;;;;;;5049071;28;19927;-66
2023/06/20 12:50:56;;;;;;;;;;;;;;;;;;5046372;28;19942;-66
2023/06/20 12:53:22;;;;;;;;;;;;;;;;;;5043128;28;19986;-66
2023/06/20 12:55:48;;;;;;;;;;;;;;;;;;5044140;28;19925;-66
2023/06/20 12:58:14;;;;;;;;;;;;;;;;;;5031892;28;19935;-67
2023/06/20 13:00:40;;;;;;;;;;;;;;;;;;5042813;28;20023;-67
2023/06/20 13:03:06;;;;;;;;;;;;;;;;;;5052382;28;20007;-66
2023/06/20 13:05:35;;;;;;;;;;;;;;;;;;5050463;28;19921;-67
2023/06/20 13:08:03;;;;;;;;;;;;;;;;;;5048154;28;19928;-67
2023/06/20 13:10:29;;;;;;;;;;;;;;;;;;5033272;28;19936;-67
2023/06/20 13:12:58;;;;;;;;;;;;;;;;;;5049504;28;19924;-67
2023/06/20 13:15:24;;;;;;;;;;;;;;;;;;5051693;28;19920;-67
2023/06/20 13:17:50;;;;;;;;;;;;;;;;;;5050814;28;19925;-66
2023/06/20 13:20:16;;;;;;;;;;;;;;;;;;5049144;28;19920;-67
2023/06/20 13:22:42;;;;;;;;;;;;;;;;;;5053271;28;19924;-67
2023/06/20 13:25:08;;;;;;;;;;;;;;;;;;5045997;28;19940;-67
2023/06/20 13:27:34;;;;;;;;;;;;;;;;;;5038855;28;19954;-67
2023/06/20 13:30:00;;;;;;;;;;;;;;;;;;5044630;28;19921;-67
2023/06/20 13:32:26;;;;;;;;;;;;;;;;;;5046446;28;20386;-67
2023/06/20 13:34:52;;;;;;;;;;;;;;;;;;5048723;28;19932;-67
2023/06/20 13:37:18;;;;;;;;;;;;;;;;;;5050565;28;19994;-67
2023/06/20 13:39:44;;;;;;;;;;;;;;;;;;5058645;28;20417;-68
2023/06/20 13:42:10;;;;;;;;;;;;;;;;;;5044749;28;19933;-68
2023/06/20 13:44:36;;;;;;;;;;;;;;;;;;5048091;28;19924;-68
2023/06/20 13:47:02;;;;;;;;;;;;;;;;;;5046846;28;19928;-68
2023/06/20 13:49:31;;;;;;;;;;;;;;;;;;5049481;28;20475;-67
2023/06/20 13:51:57;;;;;;;;;;;;;;;;;;5047369;28;19928;-67
2023/06/20 13:54:23;;;;;;;;;;;;;;;;;;5048255;28;19943;-67
2023/06/20 13:56:49;;;;;;;;;;;;;;;;;;5050658;28;19948;-67
2023/06/20 13:59:14;;;;;;;;;;;;;;;;;;5045693;28;20411;-62
2023/06/20 14:01:41;;;;;;;;;;;;;;;;;;5045138;28;19924;-63
2023/06/20 14:04:07;;;;;;;;;;;;;;;;;;5045086;28;20892;-63
2023/06/20 14:06:33;;;;;;;;;;;;;;;;;;5038310;28;20028;-63
2023/06/20 14:08:59;;;;;;;;;;;;;;;;;;5047748;28;19928;-63
2023/06/20 14:11:25;;;;;;;;;;;;;;;;;;5046303;28;20028;-63
2023/06/20 14:13:50;;;;;;;;;;;;;;;;;;5041571;28;19968;-63
2023/06/20 14:16:16;;;;;;;;;;;;;;;;;;5024671;28;19927;-63
2023/06/20 14:18:42;;;;;;;;;;;;;;;;;;5043755;28;19936;-63
2023/06/20 14:21:08;;;;;;;;;;;;;;;;;;5013304;28;20344;-63
2023/06/20 14:23:34;;;;;;;;;;;;;;;;;;5033791;28;19925;-63
2023/06/20 14:26:00;;;;;;;;;;;;;;;;;;5049300;28;19975;-63
2023/06/20 14:28:27;;;;;;;;;;;;;;;;;;5041441;28;19929;-63
2023/06/20 14:30:53;;;;;;;;;;;;;;;;;;5047235;28;19928;-63
2023/06/20 14:33:19;;;;;;;;;;;;;;;;;;5048881;28;19925;-63
2023/06/20 14:35:46;;;;;;;;;;;;;;;;;;5044014;28;20384;-64
2023/06/20 14:38:12;;;;;;;;;;;;;;;;;;5045599;28;19963;-63
2023/06/20 14:40:38;;;;;;;;;;;;;;;;;;5048368;28;19952;-65
2023/06/20 14:43:03;;;;;;;;;;;;;;;;;;5052318;28;20342;-65
2023/06/20 14:45:29;;;;;;;;;;;;;;;;;;5048894;28;19927;-65
2023/06/20 14:47:55;;;;;;;;;;;;;;;;;;5051149;28;19921;-66
2023/06/20 14:50:24;;;;;;;;;;;;;;;;;;5044791;28;19925;-65
2023/06/20 14:52:50;;;;;;;;;;;;;;;;;;5028649;28;21287;-65
2023/06/20 14:55:16;;;;;;;;;;;;;;;;;;5028456;28;19921;-65
2023/06/20 14:57:41;;;;;;;;;;;;;;;;;;5030238;28;20118;-68
2023/06/20 15:00:09;;;;;;;;;;;;;;;;;;5043102;28;20576;-68
2023/06/20 15:02:35;;;;;;;;;;;;;;;;;;5030429;28;19921;-68
2023/06/20 15:05:01;;;;;;;;;;;;;;;;;;5041591;28;19931;-68
2023/06/20 15:07:27;;;;;;;;;;;;;;;;;;5047152;28;19921;-68
2023/06/20 15:09:54;;;;;;;;;;;;;;;;;;5043516;28;19921;-65
2023/06/20 15:12:19;;;;;;;;;;;;;;;;;;5010215;28;19924;-65
2023/06/20 15:14:45;;;;;;;;;;;;;;;;;;5038315;28;20269;-65
2023/06/20 15:17:11;;;;;;;;;;;;;;;;;;5032527;28;19921;-65
2023/06/20 15:19:37;;;;;;;;;;;;;;;;;;5019141;28;20058;-65
2023/06/20 15:22:03;;;;;;;;;;;;;;;;;;5046458;28;19925;-65
2023/06/20 15:24:32;;;;;;;;;;;;;;;;;;5044548;28;19924;-65
2023/06/20 15:26:58;;;;;;;;;;;;;;;;;;5029722;28;20404;-65
2023/06/20 15:29:24;;;;;;;;;;;;;;;;;;5053568;28;20011;-65
2023/06/20 15:31:49;;;;;;;;;;;;;;;;;;5043467;28;19933;-66
2023/06/20 15:34:15;;;;;;;;;;;;;;;;;;5020015;28;23861;-65
2023/06/20 15:36:41;;;;;;;;;;;;;;;;;;5025184;28;19925;-64
2023/06/20 15:39:07;;;;;;;;;;;;;;;;;;5037957;28;19948;-65
2023/06/20 15:41:33;;;;;;;;;;;;;;;;;;5050638;28;19987;-65
2023/06/20 15:43:59;;;;;;;;;;;;;;;;;;5035812;28;20010;-65
2023/06/20 15:46:25;;;;;;;;;;;;;;;;;;5026732;28;20341;-65
2023/06/20 15:48:51;;;;;;;;;;;;;;;;;;5045611;28;19954;-60
2023/06/20 15:51:17;;;;;;;;;;;;;;;;;;5038507;28;19931;-60
2023/06/20 15:53:43;;;;;;;;;;;;;;;;;;5025025;28;19935;-60
2023/06/20 15:56:08;;;;;;;;;;;;;;;;;;5038252;28;19925;-60
2023/06/20 15:58:34;;;;;;;;;;;;;;;;;;5028286;28;19928;-61
2023/06/20 16:01:00;;;;;;;;;;;;;;;;;;5035531;28;19967;-61
2023/06/20 16:03:26;;;;;;;;;;;;;;;;;;5044753;28;20308;-65
2023/06/20 16:05:52;;;;;;;;;;;;;;;;;;5029103;28;19920;-65
2023/06/20 16:08:18;;;;;;;;;;;;;;;;;;5049107;28;19921;-65
2023/06/20 16:10:44;;;;;;;;;;;;;;;;;;5034948;28;19943;-65
2023/06/20 16:13:10;;;;;;;;;;;;;;;;;;5041747;28;19929;-66
2023/06/20 16:15:36;;;;;;;;;;;;;;;;;;5048129;28;19938;-65
2023/06/20 16:18:02;;;;;;;;;;;;;;;;;;5041866;28;20007;-65
2023/06/20 16:20:28;;;;;;;;;;;;;;;;;;5053255;28;19924;-65
2023/06/20 16:22:54;;;;;;;;;;;;;;;;;;5045374;28;20007;-65
2023/06/20 16:25:20;;;;;;;;;;;;;;;;;;5045652;28;19921;-65
2023/06/20 16:27:46;;;;;;;;;;;;;;;;;;5046813;28;19929;-66
2023/06/20 16:30:12;;;;;;;;;;;;;;;;;;5045068;28;19956;-66
2023/06/20 16:32:37;;;;;;;;;;;;;;;;;;5051410;28;19979;-66
2023/06/20 16:35:03;;;;;;;;;;;;;;;;;;5046562;28;19975;-66
2023/06/20 16:37:29;;;;;;;;;;;;;;;;;;5032164;28;19925;-64